Showell, Maryland
Current Conditions -  °F | °C
As of 2:53 PM on Sunday 21 Dec 2014 (Local Time) from KOXB Reporting Station
Clear Clear  
Wind Chill: 43°   Ceiling: Unl
Heat Index: 43°   Visibility: 8mi
Dew Point: 25°   Wind: 3mph
Humidity: 49%   Direction: NA
Pressure: 30.29"   Gusts: NA
Location:  38.4°N, 75.22°W
Report Text: KOXB 211953Z AUTO VRB03KT 8SM CLR 06/M04 A3029 RMK AO2 SLP256 T00611039 TSNO
Loading
Personal Weather Stations






























Interactive Weather Map New forecast layout! Learn more

10-Day Weather Forecast

Advertisements
Track Severe Weather on mobile